CEST,Max TemperatureF,Mean TemperatureF,Min TemperatureF,Max Dew PointF,MeanDew PointF,Min DewpointF,Max Humidity, Mean Humidity, Min Humidity, Max Sea Level PressureIn, Mean Sea Level PressureIn, Min Sea Level PressureIn, Max VisibilityMiles, Mean VisibilityMiles, Min VisibilityMiles, Max Wind SpeedMPH, Mean Wind SpeedMPH, Max Gust SpeedMPH,PrecipitationIn, CloudCover, Events, WindDirDegrees
2013-7-1,86,72,58,68,61,55,88,67,39,30.10,30.04,29.98,19,7,6,17,4,,0.00,1,,142
2013-7-2,82,72,61,68,64,59,94,73,48,30.06,30.03,30.01,19,7,6,18,6,,0.00,1,,182
2013-7-3,81,74,67,68,66,63,88,74,55,30.09,30.05,30.01,16,6,6,15,3,,0.00,2,,216
2013-7-4,83,74,66,68,66,63,88,71,51,30.18,30.12,30.09,19,7,6,15,5,14,0.00,3,,204
2013-7-5,87,74,62,68,62,55,94,64,27,30.21,30.18,30.15,19,7,6,15,4,,0.00,1,,76
2013-7-6,84,72,61,66,60,55,88,61,34,30.21,30.18,30.15,19,8,6,14,5,,0.00,1,,244
2013-7-7,89,74,60,70,62,54,88,61,23,30.19,30.14,30.09,19,9,6,14,3,,0.00,1,,227
2013-7-8,89,77,65,70,64,59,88,63,36,30.15,30.11,30.09,19,8,6,15,5,,0.00,1,,84
2013-7-9,89,76,64,70,64,59,83,63,38,30.12,30.07,30.01,19,8,6,17,5,,0.00,1,,270
2013-7-10,85,76,67,72,67,61,88,71,45,30.06,29.98,29.92,17,8,6,21,4,,0.00,1,,220
2013-7-11,87,79,71,72,68,59,94,68,30,29.96,29.91,29.86,19,7,6,15,3,,0.00,1,,217
2013-7-12,87,76,66,72,66,54,94,66,26,30.02,29.99,29.95,16,7,6,25,4,,0.00,1,,217
2013-7-13,87,78,70,70,63,54,83,58,28,30.07,30.03,30.01,19,13,6,16,3,15,0.00,4,,66
2013-7-14,88,76,63,70,63,54,88,61,23,30.10,30.06,30.04,19,9,6,29,4,,0.00,1,,220
2013-7-15,93,79,65,72,63,54,88,57,22,30.13,30.09,30.06,19,8,6,27,4,,0.00,1,,213
2013-7-16,91,78,66,72,66,61,88,64,36,30.13,30.10,30.06,19,10,6,36,4,,0.00,1,,239
2013-7-17,91,79,67,68,64,59,78,58,29,30.13,30.10,30.06,19,10,6,29,4,,0.00,1,,229
2013-7-18,90,79,68,70,67,61,88,66,38,30.10,30.08,30.04,19,8,6,17,4,,0.00,1,,272
2013-7-19,95,82,68,72,65,57,88,60,28,30.09,30.02,29.95,19,8,6,16,4,,0.00,1,,108
2013-7-20,98,82,67,72,62,52,88,54,22,30.01,29.95,29.89,16,10,6,13,7,,0.00,1,,70
2013-7-21,95,82,68,75,68,59,94,66,34,30.04,29.99,29.95,19,7,6,20,8,17,0.02,1,Rain-Thunderstorm,59
2013-7-22,91,82,72,72,69,63,88,68,38,30.04,30.01,29.98,19,7,6,15,4,,0.00,1,,191
2013-7-23,88,78,68,72,68,63,88,69,43,30.01,29.98,29.95,19,9,6,18,4,,0.00,1,,224
2013-7-24,88,78,68,73,70,66,89,75,51,30.04,30.02,29.98,19,8,6,15,4,,0.00,1,,227
2013-7-25,92,80,67,73,67,57,89,67,24,30.05,30.02,29.98,19,7,6,17,3,,0.00,1,,272
2013-7-26,101,84,66,66,61,52,88,48,15,29.98,29.92,29.86,19,10,6,14,5,26,0.00,1,,105
2013-7-27,94,84,73,79,72,66,89,68,42,29.89,29.82,29.80,19,8,5,15,6,,0.00,1,,217
2013-7-28,91,80,70,77,73,70,94,74,50,30.01,29.89,29.83,16,6,5,21,6,,0.00,1,,217
2013-7-29,95,86,77,73,65,50,83,53,23,30.21,30.08,29.98,19,7,6,16,9,25,0.00,1,,295
2013-7-30,92,80,69,70,66,55,88,63,31,30.24,30.20,30.15,19,7,6,18,6,16,0.00,1,,109
2013-7-31,93,80,67,70,65,54,88,60,28,30.18,30.08,30.01,19,8,6,15,3,,0.00,1,,208